sensor_id;sensor_type;location;lat;lon;timestamp;temperature;humidity
18777;DHT22;9517;51.174;4.160;2024-01-07T00:00:40;4.30;99.90
18777;DHT22;9517;51.174;4.160;2024-01-07T00:03:08;4.10;99.90
18777;DHT22;9517;51.174;4.160;2024-01-07T00:05:36;4.20;99.90
18777;DHT22;9517;51.174;4.160;2024-01-07T00:08:06;4.20;99.90
18777;DHT22;9517;51.174;4.160;2024-01-07T00:10:34;4.00;99.90
18777;DHT22;9517;51.174;4.160;2024-01-07T00:13:01;4.00;99.90
18777;DHT22;9517;51.174;4.160;2024-01-07T00:15:30;4.10;99.90
18777;DHT22;9517;51.174;4.160;2024-01-07T00:17:57;4.00;99.90
18777;DHT22;9517;51.174;4.160;2024-01-07T00:20:25;4.10;99.90
18777;DHT22;9517;51.174;4.160;2024-01-07T00:22:52;4.10;99.90
18777;DHT22;9517;51.174;4.160;2024-01-07T00:25:24;3.90;99.90
18777;DHT22;9517;51.174;4.160;2024-01-07T00:27:52;3.90;99.90
18777;DHT22;9517;51.174;4.160;2024-01-07T00:30:21;3.90;99.90
18777;DHT22;9517;51.174;4.160;2024-01-07T00:32:48;3.80;99.90
18777;DHT22;9517;51.174;4.160;2024-01-07T00:35:17;3.80;99.90
18777;DHT22;9517;51.174;4.160;2024-01-07T00:37:44;3.80;99.90
18777;DHT22;9517;51.174;4.160;2024-01-07T00:40:12;3.80;99.90
18777;DHT22;9517;51.174;4.160;2024-01-07T00:42:41;3.90;99.90
18777;DHT22;9517;51.174;4.160;2024-01-07T00:45:10;3.90;99.90
18777;DHT22;9517;51.174;4.160;2024-01-07T00:47:37;4.00;99.90
18777;DHT22;9517;51.174;4.160;2024-01-07T00:50:05;3.80;99.90
18777;DHT22;9517;51.174;4.160;2024-01-07T00:52:32;3.80;99.90
18777;DHT22;9517;51.174;4.160;2024-01-07T00:55:03;3.80;99.90
18777;DHT22;9517;51.174;4.160;2024-01-07T00:57:32;3.80;99.90
18777;DHT22;9517;51.174;4.160;2024-01-07T01:00:04;3.80;99.90
18777;DHT22;9517;51.174;4.160;2024-01-07T01:02:32;3.90;99.90
18777;DHT22;9517;51.174;4.160;2024-01-07T01:05:01;3.90;99.90
18777;DHT22;9517;51.174;4.160;2024-01-07T01:07:29;3.90;99.90
18777;DHT22;9517;51.174;4.160;2024-01-07T01:09:56;4.00;99.90
18777;DHT22;9517;51.174;4.160;2024-01-07T01:12:24;4.00;99.90
18777;DHT22;9517;51.174;4.160;2024-01-07T01:14:54;4.00;99.90
18777;DHT22;9517;51.174;4.160;2024-01-07T01:17:24;3.90;99.90
18777;DHT22;9517;51.174;4.160;2024-01-07T01:19:52;4.00;99.90
18777;DHT22;9517;51.174;4.160;2024-01-07T01:22:21;3.80;99.90
18777;DHT22;9517;51.174;4.160;2024-01-07T01:24:50;3.60;99.90
18777;DHT22;9517;51.174;4.160;2024-01-07T01:27:18;3.70;99.90
18777;DHT22;9517;51.174;4.160;2024-01-07T01:29:46;3.70;99.90
18777;DHT22;9517;51.174;4.160;2024-01-07T01:32:16;3.70;99.90
18777;DHT22;9517;51.174;4.160;2024-01-07T01:34:45;3.80;99.90
18777;DHT22;9517;51.174;4.160;2024-01-07T01:37:13;3.70;99.90
18777;DHT22;9517;51.174;4.160;2024-01-07T01:39:41;3.60;99.90
18777;DHT22;9517;51.174;4.160;2024-01-07T01:42:08;3.60;99.90
18777;DHT22;9517;51.174;4.160;2024-01-07T01:44:35;3.60;99.90
18777;DHT22;9517;51.174;4.160;2024-01-07T01:47:03;3.80;99.90
18777;DHT22;9517;51.174;4.160;2024-01-07T01:49:33;3.80;99.90
18777;DHT22;9517;51.174;4.160;2024-01-07T01:52:08;3.70;99.90
18777;DHT22;9517;51.174;4.160;2024-01-07T01:54:36;3.60;99.90
18777;DHT22;9517;51.174;4.160;2024-01-07T01:57:04;3.70;99.90
18777;DHT22;9517;51.174;4.160;2024-01-07T01:59:34;3.80;99.90
18777;DHT22;9517;51.174;4.160;2024-01-07T02:02:01;3.90;99.90
18777;DHT22;9517;51.174;4.160;2024-01-07T02:04:29;3.80;99.90
18777;DHT22;9517;51.174;4.160;2024-01-07T02:06:57;3.70;99.90
18777;DHT22;9517;51.174;4.160;2024-01-07T02:09:26;3.60;99.90
18777;DHT22;9517;51.174;4.160;2024-01-07T02:12:02;3.70;99.90
18777;DHT22;9517;51.174;4.160;2024-01-07T02:14:30;3.80;99.90
18777;DHT22;9517;51.174;4.160;2024-01-07T02:16:58;3.90;99.90
18777;DHT22;9517;51.174;4.160;2024-01-07T02:19:26;4.00;99.90
18777;DHT22;9517;51.174;4.160;2024-01-07T02:21:54;3.80;99.90
18777;DHT22;9517;51.174;4.160;2024-01-07T02:24:26;3.70;99.90
18777;DHT22;9517;51.174;4.160;2024-01-07T02:26:56;3.70;99.90
18777;DHT22;9517;51.174;4.160;2024-01-07T02:29:23;3.60;99.90
18777;DHT22;9517;51.174;4.160;2024-01-07T02:31:51;3.60;99.90
18777;DHT22;9517;51.174;4.160;2024-01-07T02:34:18;3.70;99.90
18777;DHT22;9517;51.174;4.160;2024-01-07T02:36:49;3.70;99.90
18777;DHT22;9517;51.174;4.160;2024-01-07T02:39:16;3.50;99.90
18777;DHT22;9517;51.174;4.160;2024-01-07T02:41:48;3.40;99.90
18777;DHT22;9517;51.174;4.160;2024-01-07T02:44:16;3.30;99.90
18777;DHT22;9517;51.174;4.160;2024-01-07T02:46:43;3.30;99.90
18777;DHT22;9517;51.174;4.160;2024-01-07T02:49:12;3.20;99.90
18777;DHT22;9517;51.174;4.160;2024-01-07T02:51:40;3.20;99.90
18777;DHT22;9517;51.174;4.160;2024-01-07T02:54:11;3.30;99.90
18777;DHT22;9517;51.174;4.160;2024-01-07T02:56:39;3.20;99.90
18777;DHT22;9517;51.174;4.160;2024-01-07T02:59:08;3.20;99.90
18777;DHT22;9517;51.174;4.160;2024-01-07T03:01:35;3.30;99.90
18777;DHT22;9517;51.174;4.160;2024-01-07T03:04:06;3.20;99.90
18777;DHT22;9517;51.174;4.160;2024-01-07T03:06:33;3.20;99.90
18777;DHT22;9517;51.174;4.160;2024-01-07T03:09:01;3.20;99.90
18777;DHT22;9517;51.174;4.160;2024-01-07T03:11:28;3.30;99.90
18777;DHT22;9517;51.174;4.160;2024-01-07T03:13:56;3.30;99.90
18777;DHT22;9517;51.174;4.160;2024-01-07T03:16:26;3.30;99.90
18777;DHT22;9517;51.174;4.160;2024-01-07T03:18:54;3.20;99.90
18777;DHT22;9517;51.174;4.160;2024-01-07T03:21:22;3.30;99.90
18777;DHT22;9517;51.174;4.160;2024-01-07T03:23:51;3.20;99.90
18777;DHT22;9517;51.174;4.160;2024-01-07T03:26:21;3.30;99.90
18777;DHT22;9517;51.174;4.160;2024-01-07T03:28:49;3.30;99.90
18777;DHT22;9517;51.174;4.160;2024-01-07T03:31:18;3.40;99.90
18777;DHT22;9517;51.174;4.160;2024-01-07T03:33:47;3.40;99.90
18777;DHT22;9517;51.174;4.160;2024-01-07T03:36:15;3.50;99.90
18777;DHT22;9517;51.174;4.160;2024-01-07T03:38:43;3.60;99.90
18777;DHT22;9517;51.174;4.160;2024-01-07T03:41:16;3.60;99.90
18777;DHT22;9517;51.174;4.160;2024-01-07T03:43:47;3.60;99.90
18777;DHT22;9517;51.174;4.160;2024-01-07T03:46:15;3.70;99.90
18777;DHT22;9517;51.174;4.160;2024-01-07T03:48:43;3.60;99.90
18777;DHT22;9517;51.174;4.160;2024-01-07T03:51:12;3.70;99.90
18777;DHT22;9517;51.174;4.160;2024-01-07T03:53:40;3.50;99.90
18777;DHT22;9517;51.174;4.160;2024-01-07T03:56:07;3.50;99.90
18777;DHT22;9517;51.174;4.160;2024-01-07T03:58:36;3.50;99.90
18777;DHT22;9517;51.174;4.160;2024-01-07T04:01:04;3.40;99.90
18777;DHT22;9517;51.174;4.160;2024-01-07T04:03:33;3.40;99.90
18777;DHT22;9517;51.174;4.160;2024-01-07T04:06:00;3.40;99.90
18777;DHT22;9517;51.174;4.160;2024-01-07T04:08:29;3.30;99.90
18777;DHT22;9517;51.174;4.160;2024-01-07T04:10:57;3.30;99.90
18777;DHT22;9517;51.174;4.160;2024-01-07T04:13:25;3.40;99.90
18777;DHT22;9517;51.174;4.160;2024-01-07T04:15:52;3.40;99.90
18777;DHT22;9517;51.174;4.160;2024-01-07T04:18:20;3.40;99.90
18777;DHT22;9517;51.174;4.160;2024-01-07T04:20:48;3.30;99.90
18777;DHT22;9517;51.174;4.160;2024-01-07T04:23:15;3.30;99.90
18777;DHT22;9517;51.174;4.160;2024-01-07T04:25:44;3.30;99.90
18777;DHT22;9517;51.174;4.160;2024-01-07T04:28:12;3.30;99.90
18777;DHT22;9517;51.174;4.160;2024-01-07T04:30:40;3.30;99.90
18777;DHT22;9517;51.174;4.160;2024-01-07T04:33:07;3.30;99.90
18777;DHT22;9517;51.174;4.160;2024-01-07T04:35:37;3.30;99.90
18777;DHT22;9517;51.174;4.160;2024-01-07T04:38:05;3.50;99.90
18777;DHT22;9517;51.174;4.160;2024-01-07T04:40:32;3.50;99.90
18777;DHT22;9517;51.174;4.160;2024-01-07T04:43:03;3.50;99.90
18777;DHT22;9517;51.174;4.160;2024-01-07T04:45:32;3.50;99.90
18777;DHT22;9517;51.174;4.160;2024-01-07T04:47:59;3.50;99.90
18777;DHT22;9517;51.174;4.160;2024-01-07T04:50:39;3.60;99.90
18777;DHT22;9517;51.174;4.160;2024-01-07T04:53:08;3.50;99.90
18777;DHT22;9517;51.174;4.160;2024-01-07T04:55:36;3.60;99.90
18777;DHT22;9517;51.174;4.160;2024-01-07T04:58:05;3.50;99.90
18777;DHT22;9517;51.174;4.160;2024-01-07T05:00:33;3.40;99.90
18777;DHT22;9517;51.174;4.160;2024-01-07T05:03:01;3.60;99.90
18777;DHT22;9517;51.174;4.160;2024-01-07T05:05:37;3.50;99.90
18777;DHT22;9517;51.174;4.160;2024-01-07T05:08:05;3.50;99.90
18777;DHT22;9517;51.174;4.160;2024-01-07T05:10:33;3.50;99.90
18777;DHT22;9517;51.174;4.160;2024-01-07T05:13:01;3.50;99.90
18777;DHT22;9517;51.174;4.160;2024-01-07T05:15:35;3.40;99.90
18777;DHT22;9517;51.174;4.160;2024-01-07T05:18:07;3.20;99.90
18777;DHT22;9517;51.174;4.160;2024-01-07T05:20:35;3.20;99.90
18777;DHT22;9517;51.174;4.160;2024-01-07T05:23:03;2.90;99.90
18777;DHT22;9517;51.174;4.160;2024-01-07T05:25:32;3.00;99.90
18777;DHT22;9517;51.174;4.160;2024-01-07T05:27:59;2.90;99.90
18777;DHT22;9517;51.174;4.160;2024-01-07T05:30:27;3.00;99.90
18777;DHT22;9517;51.174;4.160;2024-01-07T05:32:57;3.10;99.90
18777;DHT22;9517;51.174;4.160;2024-01-07T05:35:25;3.00;99.90
18777;DHT22;9517;51.174;4.160;2024-01-07T05:37:53;3.10;99.90
18777;DHT22;9517;51.174;4.160;2024-01-07T05:40:21;3.10;99.90
18777;DHT22;9517;51.174;4.160;2024-01-07T05:42:48;3.10;99.90
18777;DHT22;9517;51.174;4.160;2024-01-07T05:45:19;3.30;99.90
18777;DHT22;9517;51.174;4.160;2024-01-07T05:47:47;3.10;99.90
18777;DHT22;9517;51.174;4.160;2024-01-07T05:50:16;3.20;99.90
18777;DHT22;9517;51.174;4.160;2024-01-07T05:52:45;3.10;99.90
18777;DHT22;9517;51.174;4.160;2024-01-07T05:55:13;3.30;99.90
18777;DHT22;9517;51.174;4.160;2024-01-07T05:57:42;3.20;99.90
18777;DHT22;9517;51.174;4.160;2024-01-07T06:00:12;3.10;99.90
18777;DHT22;9517;51.174;4.160;2024-01-07T06:02:40;3.00;99.90
18777;DHT22;9517;51.174;4.160;2024-01-07T06:05:16;3.00;99.90
18777;DHT22;9517;51.174;4.160;2024-01-07T06:07:44;3.00;99.90
18777;DHT22;9517;51.174;4.160;2024-01-07T06:10:24;3.10;99.90
18777;DHT22;9517;51.174;4.160;2024-01-07T06:12:57;3.20;99.90
18777;DHT22;9517;51.174;4.160;2024-01-07T06:15:24;3.10;99.90
18777;DHT22;9517;51.174;4.160;2024-01-07T06:17:52;3.10;99.90
18777;DHT22;9517;51.174;4.160;2024-01-07T06:20:24;3.00;99.90
18777;DHT22;9517;51.174;4.160;2024-01-07T06:23:02;3.20;99.90
18777;DHT22;9517;51.174;4.160;2024-01-07T06:25:30;3.10;99.90
18777;DHT22;9517;51.174;4.160;2024-01-07T06:27:57;3.10;99.90
18777;DHT22;9517;51.174;4.160;2024-01-07T06:30:25;3.10;99.90
18777;DHT22;9517;51.174;4.160;2024-01-07T06:32:52;3.10;99.90
18777;DHT22;9517;51.174;4.160;2024-01-07T06:35:25;3.00;99.90
18777;DHT22;9517;51.174;4.160;2024-01-07T06:37:52;2.90;99.90
18777;DHT22;9517;51.174;4.160;2024-01-07T06:40:19;3.10;99.90
18777;DHT22;9517;51.174;4.160;2024-01-07T06:42:48;3.10;99.90
18777;DHT22;9517;51.174;4.160;2024-01-07T06:45:18;3.10;99.90
18777;DHT22;9517;51.174;4.160;2024-01-07T06:47:45;3.20;99.90
18777;DHT22;9517;51.174;4.160;2024-01-07T06:50:13;3.20;99.90
18777;DHT22;9517;51.174;4.160;2024-01-07T06:52:43;3.30;99.90
18777;DHT22;9517;51.174;4.160;2024-01-07T06:55:11;3.20;99.90
18777;DHT22;9517;51.174;4.160;2024-01-07T06:57:38;3.30;99.90
18777;DHT22;9517;51.174;4.160;2024-01-07T07:00:07;3.30;99.90
18777;DHT22;9517;51.174;4.160;2024-01-07T07:02:34;3.10;99.90
18777;DHT22;9517;51.174;4.160;2024-01-07T07:05:02;3.10;99.90
18777;DHT22;9517;51.174;4.160;2024-01-07T07:07:30;3.20;99.90
18777;DHT22;9517;51.174;4.160;2024-01-07T07:09:59;3.20;99.90
18777;DHT22;9517;51.174;4.160;2024-01-07T07:12:28;3.20;99.90
18777;DHT22;9517;51.174;4.160;2024-01-07T07:14:57;3.20;99.90
18777;DHT22;9517;51.174;4.160;2024-01-07T08:16:07;3.20;99.90
18777;DHT22;9517;51.174;4.160;2024-01-07T08:44:48;3.20;99.90
18777;DHT22;9517;51.174;4.160;2024-01-07T08:51:34;3.10;99.90
18777;DHT22;9517;51.174;4.160;2024-01-07T09:08:09;3.00;99.90
18777;DHT22;9517;51.174;4.160;2024-01-07T09:10:41;3.10;99.90
18777;DHT22;9517;51.174;4.160;2024-01-07T09:28:51;2.80;99.90
18777;DHT22;9517;51.174;4.160;2024-01-07T10:09:45;3.10;99.90
18777;DHT22;9517;51.174;4.160;2024-01-07T10:12:36;3.10;99.90
18777;DHT22;9517;51.174;4.160;2024-01-07T10:15:29;3.20;99.90
18777;DHT22;9517;51.174;4.160;2024-01-07T10:18:48;3.10;99.90
18777;DHT22;9517;51.174;4.160;2024-01-07T10:42:22;2.70;99.90
18777;DHT22;9517;51.174;4.160;2024-01-07T11:15:57;3.10;99.90
18777;DHT22;9517;51.174;4.160;2024-01-07T21:49:00;-0.40;99.90
18777;DHT22;9517;51.174;4.160;2024-01-07T21:51:36;-0.50;99.90
18777;DHT22;9517;51.174;4.160;2024-01-07T21:54:10;-0.50;99.90
18777;DHT22;9517;51.174;4.160;2024-01-07T21:56:52;-0.50;99.90
18777;DHT22;9517;51.174;4.160;2024-01-07T21:59:22;-0.50;99.90
18777;DHT22;9517;51.174;4.160;2024-01-07T22:01:59;-0.50;99.90
18777;DHT22;9517;51.174;4.160;2024-01-07T22:04:36;-0.50;99.90
18777;DHT22;9517;51.174;4.160;2024-01-07T22:07:05;-0.50;99.90
18777;DHT22;9517;51.174;4.160;2024-01-07T22:09:35;-0.50;99.90
18777;DHT22;9517;51.174;4.160;2024-01-07T22:12:12;-0.60;99.90
18777;DHT22;9517;51.174;4.160;2024-01-07T22:14:50;-0.60;99.90
18777;DHT22;9517;51.174;4.160;2024-01-07T22:17:23;-0.50;99.90
18777;DHT22;9517;51.174;4.160;2024-01-07T22:20:08;-0.50;99.90
18777;DHT22;9517;51.174;4.160;2024-01-07T22:22:42;-0.40;99.90
18777;DHT22;9517;51.174;4.160;2024-01-07T22:25:13;-0.60;99.90
18777;DHT22;9517;51.174;4.160;2024-01-07T22:27:48;-0.60;99.90
18777;DHT22;9517;51.174;4.160;2024-01-07T22:30:23;-0.50;99.90
18777;DHT22;9517;51.174;4.160;2024-01-07T22:32:59;-0.50;99.90
18777;DHT22;9517;51.174;4.160;2024-01-07T22:35:48;-0.70;99.90
18777;DHT22;9517;51.174;4.160;2024-01-07T22:38:20;-0.60;99.90
18777;DHT22;9517;51.174;4.160;2024-01-07T22:41:08;-0.60;99.90
18777;DHT22;9517;51.174;4.160;2024-01-07T22:43:39;-0.60;99.90
18777;DHT22;9517;51.174;4.160;2024-01-07T22:46:11;-0.60;99.90
18777;DHT22;9517;51.174;4.160;2024-01-07T22:49:04;-0.60;99.90
18777;DHT22;9517;51.174;4.160;2024-01-07T22:54:23;-0.60;99.90
18777;DHT22;9517;51.174;4.160;2024-01-07T22:56:50;-0.50;99.90
18777;DHT22;9517;51.174;4.160;2024-01-07T22:59:19;-0.60;99.90
18777;DHT22;9517;51.174;4.160;2024-01-07T23:01:55;-0.60;99.90
18777;DHT22;9517;51.174;4.160;2024-01-07T23:04:28;-0.60;99.90
18777;DHT22;9517;51.174;4.160;2024-01-07T23:07:01;-0.60;99.90
18777;DHT22;9517;51.174;4.160;2024-01-07T23:12:53;-0.60;99.90
18777;DHT22;9517;51.174;4.160;2024-01-07T23:15:30;-0.70;99.90
18777;DHT22;9517;51.174;4.160;2024-01-07T23:18:10;-0.60;99.90
18777;DHT22;9517;51.174;4.160;2024-01-07T23:20:43;-0.60;99.90
18777;DHT22;9517;51.174;4.160;2024-01-07T23:23:34;-0.70;99.90
18777;DHT22;9517;51.174;4.160;2024-01-07T23:26:13;-0.60;99.90
18777;DHT22;9517;51.174;4.160;2024-01-07T23:29:04;-0.60;99.90
18777;DHT22;9517;51.174;4.160;2024-01-07T23:31:40;-0.70;99.90
18777;DHT22;9517;51.174;4.160;2024-01-07T23:34:25;-0.70;99.90
18777;DHT22;9517;51.174;4.160;2024-01-07T23:37:08;-0.70;99.90
18777;DHT22;9517;51.174;4.160;2024-01-07T23:39:45;-0.70;99.90
18777;DHT22;9517;51.174;4.160;2024-01-07T23:42:24;-0.80;99.90
18777;DHT22;9517;51.174;4.160;2024-01-07T23:45:06;-0.70;99.90
18777;DHT22;9517;51.174;4.160;2024-01-07T23:47:43;-0.80;99.90
18777;DHT22;9517;51.174;4.160;2024-01-07T23:56:13;-0.80;99.90
